Weather reports worldwide

Advertisment
Berlin/Alexanderplatz, Germany (10389): temperature & dewpoint: 16.09.2019 23:00:00 - 22.09.2019 23:00:00 (CEST)Berlin/Alexanderplatz, Germany (10389): temperature -5cm: 16.09.2019 23:00:00 - 22.09.2019 23:00:00 (CEST)Berlin/Alexanderplatz, Germany (10389): temperature -20cm & temperature -100cm: 16.09.2019 23:00:00 - 22.09.2019 23:00:00 (CEST)Berlin/Alexanderplatz, Germany (10389): sunshine duration: 16.09.2019 23:00:00 - 22.09.2019 23:00:00 (CEST)Berlin/Alexanderplatz, Germany (10389): precipitation: 16.09.2019 23:00:00 - 22.09.2019 23:00:00 (CEST)
Date & Time tt [°C] td [°C] tt -5cm [°C] tt -20cm [°C] tt -100cm [°C] sd [min] rr [mm]
22.09.2019 23:00:00 - - - - - - -
22.09.2019 22:00:00 - - - - - - -
22.09.2019 21:00:00 - - - - - - -
22.09.2019 20:00:00 - - - - - - -
22.09.2019 19:00:00 - - - - - - -
22.09.2019 18:00:00 - - - - - - -
22.09.2019 17:00:00 - - - - - - -
22.09.2019 16:00:00 - - - - - - -
22.09.2019 15:00:00 - - - - - - -
22.09.2019 14:00:00 - - - - - - -
22.09.2019 13:00:00 - - - - - - -
22.09.2019 12:00:00 - - - - - - -
22.09.2019 11:00:00 - - - - - - -
22.09.2019 10:00:00 - - - - - - -
22.09.2019 09:00:00 - - - - - - -
22.09.2019 08:00:00 - - - - - - -
22.09.2019 07:00:00 - - - - - - -
22.09.2019 06:00:00 - - - - - - -
22.09.2019 05:00:00 - - - - - - -
22.09.2019 04:00:00 - - - - - - -
22.09.2019 03:00:00 - - - - - - -
22.09.2019 02:00:00 13,1 7,8 12,7 16,8 17,5 0 0,0
22.09.2019 01:00:00 13,4 8,2 13,4 17,1 17,5 0 0,0
22.09.2019 00:00:00 14,3 8,3 14,2 17,4 17,5 0 0,0
21.09.2019 23:00:00 14,9 8,4 15,1 17,6 17,5 0 0,0
21.09.2019 22:00:00 15,8 8,5 16,2 17,9 17,5 0 0,0
21.09.2019 21:00:00 16,7 8,1 17,5 18,1 17,5 0 0,0
21.09.2019 20:00:00 18,0 7,7 19,1 18,1 17,5 0 0,0
21.09.2019 19:00:00 19,5 7,6 21,2 17,9 17,5 0 0,0
21.09.2019 18:00:00 20,8 7,4 23,6 17,4 17,5 52 0,0
21.09.2019 17:00:00 22,1 7,1 25,7 16,7 17,5 60 0,0
21.09.2019 16:00:00 21,7 7,1 26,7 15,8 17,6 51 0,0
21.09.2019 15:00:00 20,4 6,7 27,0 14,9 17,6 57 0,0
21.09.2019 14:00:00 20,5 7,1 25,2 14,1 17,6 59 0,0
21.09.2019 13:00:00 18,4 6,3 19,6 13,8 17,6 59 0,0
21.09.2019 12:00:00 18,0 5,9 13,8 13,7 17,6 51 0,0
21.09.2019 11:00:00 16,4 5,9 11,1 13,8 17,6 12 0,0
21.09.2019 10:00:00 14,2 5,5 10,5 13,9 17,6 1 0,0
21.09.2019 09:00:00 11,8 5,9 9,9 14,1 17,6 0 0,0
21.09.2019 08:00:00 10,9 5,8 9,7 14,3 17,6 0 0,0
21.09.2019 07:00:00 10,3 6,3 9,9 14,6 17,6 0 0,0
21.09.2019 06:00:00 10,5 6,4 10,3 14,8 17,6 0 0,0
21.09.2019 05:00:00 10,7 6,4 10,8 15,0 17,6 0 0,0
21.09.2019 04:00:00 11,3 6,6 11,4 15,3 17,6 0 0,0
21.09.2019 03:00:00 11,7 7,0 12,0 15,5 17,7 0 0,0
21.09.2019 02:00:00 12,4 7,1 12,7 15,7 17,7 0 0,0
21.09.2019 01:00:00 13,1 6,9 13,4 15,8 17,7 0 0,0
21.09.2019 00:00:00 14,2 7,0 14,4 15,9 17,7 0 0,0
20.09.2019 23:00:00 15,5 7,0 15,4 16,0 17,7 0 0,0
20.09.2019 22:00:00 15,7 6,9 15,8 16,1 17,7 0 0,0
20.09.2019 21:00:00 15,8 6,8 16,4 16,1 17,7 0 0,0
20.09.2019 20:00:00 16,1 7,1 17,2 16,0 17,8 0 0,0
20.09.2019 19:00:00 15,9 6,9 18,4 15,8 17,8 0 0,0
20.09.2019 18:00:00 16,0 6,7 20,0 15,4 17,8 0 0,0
20.09.2019 17:00:00 16,1 6,8 21,4 14,8 17,8 20 0,0
20.09.2019 16:00:00 16,4 5,9 22,2 14,2 17,8 39 0,0
20.09.2019 15:00:00 15,7 5,6 21,5 13,6 17,8 48 0,0
20.09.2019 14:00:00 14,9 4,9 18,3 13,1 17,8 15 0,0
20.09.2019 13:00:00 14,3 5,9 15,9 12,8 17,8 1 0,0
20.09.2019 12:00:00 13,5 7,0 13,9 12,7 17,9 6 0,0
20.09.2019 11:00:00 12,2 6,9 11,2 12,7 17,9 2 0,0
20.09.2019 10:00:00 10,8 6,4 9,1 12,8 17,9 1 0,0
20.09.2019 09:00:00 9,3 5,5 8,4 12,9 17,9 0 0,0
20.09.2019 08:00:00 8,4 5,2 8,2 13,1 17,9 0 0,0
20.09.2019 07:00:00 8,3 5,1 8,4 13,4 17,9 0 0,0
20.09.2019 06:00:00 8,1 4,7 8,1 13,6 17,9 0 0,0
20.09.2019 05:00:00 8,6 4,4 8,4 13,9 17,9 0 0,0
20.09.2019 04:00:00 9,3 3,9 8,8 14,1 18,0 0 0,0
20.09.2019 03:00:00 10,3 3,6 9,2 14,4 18,0 0 0,0
20.09.2019 02:00:00 10,8 3,3 9,7 14,7 18,0 0 0,0
20.09.2019 01:00:00 11,3 3,1 10,2 15,0 18,0 0 0,0
20.09.2019 00:00:00 11,7 3,5 10,9 15,3 18,0 0 0,0
19.09.2019 23:00:00 12,4 3,9 11,7 15,6 18,0 0 0,0
19.09.2019 22:00:00 12,4 4,9 12,8 15,8 18,1 0 0,0
19.09.2019 21:00:00 13,8 4,4 14,0 16,0 18,1 0 0,0
19.09.2019 20:00:00 14,6 4,3 15,4 16,0 18,1 0 0,0
19.09.2019 19:00:00 15,4 3,2 17,1 15,9 18,1 0 0,0
19.09.2019 18:00:00 15,9 2,7 18,8 15,6 18,1 19 0,0
19.09.2019 17:00:00 15,9 2,7 20,4 15,1 18,1 21 0,0
19.09.2019 16:00:00 16,1 4,2 21,5 14,4 18,2 23 0,0
19.09.2019 15:00:00 15,9 4,0 22,9 13,6 18,2 39 0,0
19.09.2019 14:00:00 15,5 4,2 22,3 12,9 18,2 52 0,0
19.09.2019 13:00:00 14,3 5,4 17,2 12,5 18,2 48 0,0
19.09.2019 12:00:00 13,6 6,2 12,4 12,5 18,2 35 0,0
19.09.2019 11:00:00 12,1 6,6 9,2 12,6 18,3 36 0,0
19.09.2019 10:00:00 10,2 6,2 8,6 12,7 18,3 13 0,0
19.09.2019 09:00:00 8,9 5,5 7,8 12,9 18,3 0 0,0
19.09.2019 08:00:00 8,2 5,1 7,5 13,1 18,3 0 0,0
19.09.2019 07:00:00 8,1 4,7 7,7 13,3 18,3 0 0,0
19.09.2019 06:00:00 8,5 4,7 8,0 13,6 18,3 0 0,0
19.09.2019 05:00:00 8,8 4,6 8,4 13,8 18,4 0 0,0
19.09.2019 04:00:00 8,9 4,5 8,9 14,1 18,4 0 0,0
19.09.2019 03:00:00 9,5 4,5 9,2 14,3 18,4 0 0,0
19.09.2019 02:00:00 10,2 4,3 9,8 14,5 18,4 0 0,0
19.09.2019 01:00:00 11,0 4,0 10,4 14,8 18,4 0 0,0
19.09.2019 00:00:00 11,5 4,0 10,9 15,0 18,4 0 0,0
18.09.2019 23:00:00 12,2 3,9 11,3 15,2 18,5 0 0,0
18.09.2019 22:00:00 12,5 4,0 11,9 15,4 18,5 0 0,0
18.09.2019 21:00:00 13,3 3,4 12,9 15,6 18,5 0 0,0
18.09.2019 20:00:00 14,3 3,1 13,9 15,6 18,5 0 0,0
18.09.2019 19:00:00 14,9 3,1 15,2 15,5 18,5 0 0,0
18.09.2019 18:00:00 15,4 2,9 16,7 15,3 18,6 20 0,0
18.09.2019 17:00:00 15,9 2,3 18,6 14,8 18,6 46 0,0
18.09.2019 16:00:00 16,0 2,0 19,2 14,3 18,6 51 0,0
18.09.2019 15:00:00 15,9 2,0 17,7 13,9 18,6 29 0,0
18.09.2019 14:00:00 15,0 3,2 17,9 13,4 18,6 21 0,0
18.09.2019 13:00:00 14,3 3,7 15,4 13,1 18,6 21 0,0
18.09.2019 12:00:00 13,0 5,2 13,2 12,9 18,6 5 0,0
18.09.2019 11:00:00 12,5 6,1 11,0 12,9 18,7 7 0,0
18.09.2019 10:00:00 11,3 6,2 8,8 13,0 18,7 9 0,0
18.09.2019 09:00:00 9,7 6,0 7,8 13,2 18,7 0 0,0
18.09.2019 08:00:00 8,8 5,7 7,3 13,4 18,7 - 0,0
18.09.2019 07:00:00 8,6 5,5 7,2 13,7 18,7 - 0,0
18.09.2019 06:00:00 8,6 5,3 7,4 13,9 18,7 - 0,0
18.09.2019 05:00:00 8,8 5,0 7,6 14,2 18,7 - 0,0
18.09.2019 04:00:00 9,0 4,8 7,9 14,5 18,7 - 0,0
18.09.2019 03:00:00 9,2 4,8 8,2 14,7 18,7 - 0,0
18.09.2019 02:00:00 9,7 4,5 8,6 15,0 18,7 - 0,0
18.09.2019 01:00:00 10,1 4,7 8,9 15,4 18,8 - 0,0
18.09.2019 00:00:00 10,5 5,1 9,3 15,7 18,8 - 0,0
17.09.2019 23:00:00 10,7 4,6 9,7 16,0 18,8 - 0,0
17.09.2019 22:00:00 11,0 4,7 10,3 16,3 18,8 - 0,0
17.09.2019 21:00:00 11,0 4,9 11,4 16,6 18,8 - 0,0
17.09.2019 20:00:00 10,3 7,0 12,5 16,8 18,8 - 0,2
17.09.2019 19:00:00 10,8 6,0 13,3 17,0 18,8 - 0,2
17.09.2019 18:00:00 13,0 5,9 15,0 17,1 18,8 - 0,1
17.09.2019 17:00:00 11,4 7,9 15,6 17,1 18,8 - 0,6
17.09.2019 16:00:00 12,4 8,9 16,4 17,0 18,8 0 2,5
17.09.2019 15:00:00 13,0 9,8 16,6 17,0 18,8 0 0,2
17.09.2019 14:00:00 13,5 9,2 17,0 16,8 18,8 2 0,4
17.09.2019 13:00:00 13,4 8,9 17,8 16,6 18,8 3 0,1
17.09.2019 12:00:00 15,2 6,7 17,6 16,6 18,8 21 0,0
17.09.2019 11:00:00 14,3 7,1 15,4 16,6 18,8 17 0,0
17.09.2019 10:00:00 13,0 7,9 14,9 16,6 18,8 - 0,0
17.09.2019 09:00:00 12,2 8,1 13,8 16,7 18,8 - 0,0
17.09.2019 08:00:00 12,1 8,2 13,5 16,9 18,8 0 0,0
17.09.2019 07:00:00 11,9 7,8 13,5 17,1 18,8 0 0,0
17.09.2019 06:00:00 12,1 8,6 13,8 17,2 18,8 0 0,0
17.09.2019 05:00:00 12,6 8,5 14,1 17,4 18,8 0 0,0
17.09.2019 04:00:00 13,0 9,1 14,3 17,5 18,8 0 0,0
17.09.2019 03:00:00 13,2 8,9 14,5 17,7 18,9 0 0,0
17.09.2019 02:00:00 13,3 9,5 14,7 17,9 18,9 0 0,0
17.09.2019 01:00:00 14,0 8,4 14,9 18,1 18,9 0 0,0
17.09.2019 00:00:00 14,1 8,3 15,1 18,3 18,9 0 0,0
16.09.2019 23:00:00 14,0 10,0 15,4 18,6 18,9 0 0,0

tt = temperature
td = dewpoint
tt -5cm = temperature -5cm
tt -20cm = temperature -20cm
tt -100cm = temperature -100cm
sd = sunshine duration
rr = precipitation

Next stations